Time;durP1;ratioP1;P1;durP2;ratioP2;P2;SDS_P1;SDS_P2;PMS_P1;PMS_P2;Temp;Humidity;BMP_temperature;BMP_pressure;BME280_temperature;BME280_humidity;BME280_pressure;Samples;Min_cycle;Max_cycle;Signal;HPM_P1;HPM_P2
2022/03/29 00:00:12;;;;;;;;;;;;;;;28.86;19.32;101025.59;5018718;28;773;-36
2022/03/29 00:02:38;;;;;;;;;;;;;;;28.64;18.77;101027.34;5018449;28;1926;-34
2022/03/29 00:05:04;;;;;;;;;;;;;;;28.69;19.07;101024.94;5021866;28;1077;-38
2022/03/29 00:07:30;;;;;;;;;;;;;;;28.72;18.88;101025.41;5018664;28;842;-38
2022/03/29 00:09:55;;;;;;;;;;;;;;;28.97;18.56;101024.28;5027052;28;821;-37
2022/03/29 00:12:20;;;;;;;;;;;;;;;28.77;18.56;101015.88;5018537;28;783;-35
2022/03/29 00:14:46;;;;;;;;;;;;;;;28.36;19.03;101009.91;5018336;28;983;-38
2022/03/29 00:23:18;;;;;;;;;;;;;;;28.71;19.19;100993.13;5025662;28;1901;-36
2022/03/29 00:25:43;;;;;;;;;;;;;;;28.61;18.84;100985.28;5018596;28;1049;-37
2022/03/29 00:28:08;;;;;;;;;;;;;;;28.62;19.00;100986.94;5018419;28;917;-38
2022/03/29 00:30:33;;;;;;;;;;;;;;;28.81;18.69;100982.81;5018183;28;826;-34
2022/03/29 00:32:59;;;;;;;;;;;;;;;28.87;18.50;100969.53;5018185;28;939;-38
2022/03/29 00:35:24;;;;;;;;;;;;;;;28.74;19.01;100984.59;5023832;28;1159;-36
2022/03/29 00:37:50;;;;;;;;;;;;;;;28.65;18.86;100970.31;5017517;28;1289;-37
2022/03/29 00:40:15;;;;;;;;;;;;;;;28.39;19.14;100966.25;5023055;28;870;-35
2022/03/29 00:42:41;;;;;;;;;;;;;;;28.67;18.96;100967.44;5017851;28;1894;-36
2022/03/29 00:45:07;;;;;;;;;;;;;;;28.85;18.68;100957.03;5017849;28;814;-37
2022/03/29 00:47:32;;;;;;;;;;;;;;;28.73;18.70;100955.84;5020882;28;764;-35
2022/03/29 00:49:57;;;;;;;;;;;;;;;28.65;18.77;100954.09;5017794;28;901;-38
2022/03/29 00:52:23;;;;;;;;;;;;;;;28.55;19.00;100953.53;5017593;28;850;-34
2022/03/29 00:54:48;;;;;;;;;;;;;;;28.55;18.80;100943.56;5020176;28;827;-39
2022/03/29 00:57:13;;;;;;;;;;;;;;;28.65;19.06;100935.13;5017634;28;810;-35
2022/03/29 00:59:39;;;;;;;;;;;;;;;28.72;18.76;100935.22;5017548;28;812;-35
2022/03/29 01:02:04;;;;;;;;;;;;;;;28.71;18.83;100931.66;5023364;28;1902;-36
2022/03/29 01:04:31;;;;;;;;;;;;;;;28.68;18.83;100932.06;5020344;28;1009;-37
2022/03/29 01:06:59;;;;;;;;;;;;;;;28.35;19.03;100925.19;5017016;28;812;-37
2022/03/29 01:09:25;;;;;;;;;;;;;;;28.62;18.90;100913.03;5019415;28;877;-37
2022/03/29 01:11:50;;;;;;;;;;;;;;;28.71;18.79;100920.84;5017550;28;823;-38
2022/03/29 01:14:16;;;;;;;;;;;;;;;28.72;18.90;100913.56;5017878;28;870;-38
2022/03/29 01:19:25;;;;;;;;;;;;;;;28.53;19.08;100905.00;5030917;28;616;-38
2022/03/29 01:22:01;;;;;;;;;;;;;;;28.36;19.29;100901.69;5034914;28;812;-35
2022/03/29 01:24:26;;;;;;;;;;;;;;;28.48;19.21;100902.88;5033917;28;1901;-32
2022/03/29 01:26:52;;;;;;;;;;;;;;;28.66;18.84;100896.22;5022342;28;957;-39
2022/03/29 01:29:17;;;;;;;;;;;;;;;28.88;18.58;100896.25;5017047;28;869;-36
2022/03/29 01:31:42;;;;;;;;;;;;;;;28.32;19.33;100892.22;5015857;28;839;-36
2022/03/29 01:34:07;;;;;;;;;;;;;;;28.10;19.42;100881.31;5017482;28;861;-33
2022/03/29 01:36:33;;;;;;;;;;;;;;;28.30;19.61;100881.59;5016651;28;770;-36
2022/03/29 01:38:59;;;;;;;;;;;;;;;28.90;18.51;100886.06;5022966;28;1025;-38
2022/03/29 01:41:26;;;;;;;;;;;;;;;28.99;18.25;100864.31;5017344;28;765;-37
2022/03/29 01:43:51;;;;;;;;;;;;;;;28.48;19.18;100867.69;5016485;28;1910;-34
2022/03/29 01:46:16;;;;;;;;;;;;;;;28.21;19.51;100870.03;5016709;28;946;-38
2022/03/29 01:48:42;;;;;;;;;;;;;;;28.22;19.29;100869.03;5020151;28;1457;-36
2022/03/29 01:51:07;;;;;;;;;;;;;;;28.31;19.47;100858.91;5035157;28;893;-38
2022/03/29 01:53:32;;;;;;;;;;;;;;;28.48;19.17;100854.16;5019510;28;829;-36
2022/03/29 01:55:58;;;;;;;;;;;;;;;29.09;18.25;100852.13;5035793;28;932;-37
2022/03/29 01:58:27;;;;;;;;;;;;;;;29.23;18.43;100857.66;5018848;28;818;-36
2022/03/29 02:00:52;;;;;;;;;;;;;;;29.05;18.53;100856.25;5020859;28;1093;-36
2022/03/29 02:03:17;;;;;;;;;;;;;;;29.19;18.40;100853.69;5018620;28;1969;-36
2022/03/29 02:05:43;;;;;;;;;;;;;;;29.39;18.30;100851.13;5022231;28;1144;-38
2022/03/29 02:08:08;;;;;;;;;;;;;;;28.35;18.11;100844.03;5023556;28;1181;-37
2022/03/29 02:10:34;;;;;;;;;;;;;;;27.77;18.18;100847.38;5024056;28;1027;-39
2022/03/29 02:12:59;;;;;;;;;;;;;;;27.47;18.74;100839.19;5023145;28;751;-38
2022/03/29 02:15:24;;;;;;;;;;;;;;;27.25;19.31;100844.44;5023334;28;818;-37
2022/03/29 02:17:50;;;;;;;;;;;;;;;27.12;19.38;100832.41;5027858;28;822;-35
2022/03/29 02:20:16;;;;;;;;;;;;;;;27.07;19.51;100840.22;5023346;28;771;-38
2022/03/29 02:22:42;;;;;;;;;;;;;;;27.05;19.44;100828.75;5023561;28;1902;-34
2022/03/29 02:25:07;;;;;;;;;;;;;;;27.04;19.39;100828.94;5028922;28;900;-38
2022/03/29 02:27:32;;;;;;;;;;;;;;;26.89;19.71;100827.81;5029239;28;826;-35
2022/03/29 02:29:58;;;;;;;;;;;;;;;26.76;19.77;100822.16;5024267;28;964;-38
2022/03/29 02:32:23;;;;;;;;;;;;;;;26.70;19.65;100818.34;5022970;28;817;-34
2022/03/29 02:34:48;;;;;;;;;;;;;;;26.85;19.66;100814.84;5022977;28;890;-34
2022/03/29 02:37:14;;;;;;;;;;;;;;;26.81;19.58;100814.38;5022993;28;1099;-37
2022/03/29 02:39:39;;;;;;;;;;;;;;;26.73;19.67;100809.03;5026333;28;834;-36
2022/03/29 02:42:06;;;;;;;;;;;;;;;26.61;20.10;100811.31;5027242;28;727;-36
2022/03/29 02:44:31;;;;;;;;;;;;;;;26.50;20.11;100804.44;5023343;28;1969;-39
2022/03/29 02:46:56;;;;;;;;;;;;;;;26.50;20.27;100812.53;5022356;28;775;-37
2022/03/29 02:49:22;;;;;;;;;;;;;;;26.62;19.63;100808.44;5023035;28;702;-35
2022/03/29 02:51:47;;;;;;;;;;;;;;;26.64;19.73;100805.56;5022557;28;857;-37
2022/03/29 02:54:14;;;;;;;;;;;;;;;26.52;19.86;100807.81;5024716;28;1179;-35
2022/03/29 02:56:39;;;;;;;;;;;;;;;26.37;20.12;100802.34;5024531;28;1321;-36
2022/03/29 02:59:05;;;;;;;;;;;;;;;26.29;20.25;100801.31;5024527;28;805;-38
2022/03/29 03:01:30;;;;;;;;;;;;;;;26.28;20.15;100804.19;5034686;28;1227;-37
2022/03/29 03:03:56;;;;;;;;;;;;;;;25.36;20.37;100804.44;5034589;28;1966;-38
2022/03/29 03:06:21;;;;;;;;;;;;;;;24.85;20.69;100794.66;5023110;28;798;-39
2022/03/29 03:08:46;;;;;;;;;;;;;;;24.30;21.14;100786.97;5029228;28;933;-37
2022/03/29 03:11:12;;;;;;;;;;;;;;;23.83;21.62;100778.34;5027021;28;817;-37
2022/03/29 03:13:37;;;;;;;;;;;;;;;23.48;22.21;100790.88;5022739;28;802;-38
2022/03/29 03:16:02;;;;;;;;;;;;;;;23.29;22.54;100792.72;5028800;28;841;-39
2022/03/29 03:18:28;;;;;;;;;;;;;;;23.79;22.36;100786.88;5019373;28;762;-39
2022/03/29 03:20:53;;;;;;;;;;;;;;;25.42;20.99;100790.28;5020171;28;1066;-37
2022/03/29 03:23:18;;;;;;;;;;;;;;;25.82;20.29;100791.41;5019502;28;1957;-37
2022/03/29 03:25:44;;;;;;;;;;;;;;;26.34;19.71;100783.81;5024525;28;992;-38
2022/03/29 03:28:09;;;;;;;;;;;;;;;26.38;19.42;100774.34;5019170;28;790;-38
2022/03/29 03:30:34;;;;;;;;;;;;;;;26.21;19.31;100787.06;5019539;28;798;-39
2022/03/29 03:33:00;;;;;;;;;;;;;;;24.40;21.01;100785.97;5023108;28;742;-34
2022/03/29 03:35:25;;;;;;;;;;;;;;;23.87;21.84;100780.72;5019743;28;890;-35
2022/03/29 03:37:51;;;;;;;;;;;;;;;25.54;20.39;100779.16;5019236;28;1093;-38
2022/03/29 03:40:16;;;;;;;;;;;;;;;26.35;19.41;100774.69;5021946;28;888;-34
2022/03/29 03:42:42;;;;;;;;;;;;;;;26.38;19.56;100771.66;5018910;28;1915;-35
2022/03/29 03:45:07;;;;;;;;;;;;;;;26.50;19.36;100774.78;5019151;28;858;-35
2022/03/29 03:47:33;;;;;;;;;;;;;;;26.59;19.05;100772.88;5017856;28;1055;-38
2022/03/29 03:49:58;;;;;;;;;;;;;;;25.81;19.17;100777.09;5018673;28;838;-35
2022/03/29 03:52:23;;;;;;;;;;;;;;;24.52;22.68;100773.94;5019722;28;1363;-36
2022/03/29 03:54:49;;;;;;;;;;;;;;;24.90;22.63;100786.94;5030664;28;1406;-32
2022/03/29 03:57:14;;;;;;;;;;;;;;;24.73;21.51;100777.13;5031027;28;1323;-32
2022/03/29 03:59:40;;;;;;;;;;;;;;;24.67;21.71;100776.78;5031734;28;1215;-37
2022/03/29 04:02:05;;;;;;;;;;;;;;;24.63;21.80;100772.75;5035939;28;1381;-34
2022/03/29 04:04:30;;;;;;;;;;;;;;;25.34;21.13;100762.53;5026242;28;1898;-36
2022/03/29 04:06:56;;;;;;;;;;;;;;;25.65;20.51;100767.22;5019031;28;1398;-34
2022/03/29 04:09:21;;;;;;;;;;;;;;;25.88;20.42;100770.00;5034238;28;1453;-34
2022/03/29 04:11:46;;;;;;;;;;;;;;;26.17;20.47;100773.91;5033428;28;1402;-38
2022/03/29 04:14:12;;;;;;;;;;;;;;;26.36;20.19;100771.81;5029172;28;1346;-36
2022/03/29 04:16:37;;;;;;;;;;;;;;;26.62;20.10;100772.53;5026320;28;1381;-37
2022/03/29 04:19:03;;;;;;;;;;;;;;;26.76;19.86;100770.88;5032659;28;877;-37
2022/03/29 04:21:29;;;;;;;;;;;;;;;26.92;19.70;100771.78;5024506;28;894;-36
2022/03/29 04:23:54;;;;;;;;;;;;;;;27.08;19.46;100774.38;5036998;28;1909;-34
2022/03/29 04:26:19;;;;;;;;;;;;;;;27.18;19.25;100781.38;5018888;28;943;-33
2022/03/29 04:28:45;;;;;;;;;;;;;;;27.09;18.63;100769.84;5017866;28;822;-30
2022/03/29 04:31:10;;;;;;;;;;;;;;;26.57;19.35;100766.81;5018061;28;818;-35
2022/03/29 04:33:35;;;;;;;;;;;;;;;26.76;19.52;100771.72;5018003;28;814;-33
2022/03/29 04:36:01;;;;;;;;;;;;;;;26.93;19.47;100774.31;5018175;28;1000;-37
2022/03/29 04:38:26;;;;;;;;;;;;;;;27.01;19.35;100765.28;5024026;28;1133;-36
2022/03/29 04:40:52;;;;;;;;;;;;;;;27.11;19.17;100767.78;5020408;28;806;-36
2022/03/29 04:43:17;;;;;;;;;;;;;;;27.19;19.03;100774.97;5018266;28;1902;-39
2022/03/29 04:45:42;;;;;;;;;;;;;;;27.34;18.61;100775.00;5017910;28;781;-35
2022/03/29 04:48:08;;;;;;;;;;;;;;;26.87;19.60;100772.34;5020329;28;1295;-34
2022/03/29 04:50:33;;;;;;;;;;;;;;;26.58;19.71;100772.03;5028596;28;1179;-37
2022/03/29 04:52:58;;;;;;;;;;;;;;;26.37;20.03;100765.44;5028261;28;1395;-36
2022/03/29 04:55:23;;;;;;;;;;;;;;;26.31;19.91;100760.69;5021802;28;739;-34
2022/03/29 04:57:49;;;;;;;;;;;;;;;26.71;19.63;100757.94;5035092;28;786;-38
2022/03/29 05:00:15;;;;;;;;;;;;;;;26.44;20.31;100754.78;5017542;28;1580;-37
2022/03/29 05:02:41;;;;;;;;;;;;;;;26.52;20.08;100746.63;5028831;28;1918;-35
2022/03/29 05:05:07;;;;;;;;;;;;;;;26.85;19.80;100740.13;5033428;28;1395;-34
2022/03/29 05:07:32;;;;;;;;;;;;;;;27.00;20.02;100736.63;5018107;28;803;-33
2022/03/29 05:09:57;;;;;;;;;;;;;;;27.40;19.21;100741.84;5033107;28;996;-38
2022/03/29 05:12:23;;;;;;;;;;;;;;;27.58;19.18;100743.31;5017957;28;897;-39
2022/03/29 05:14:49;;;;;;;;;;;;;;;27.49;19.47;100735.31;5024118;28;840;-40
2022/03/29 05:17:14;;;;;;;;;;;;;;;27.39;19.84;100732.88;5017567;28;833;-41
2022/03/29 05:19:39;;;;;;;;;;;;;;;27.37;19.96;100742.22;5017752;28;730;-40
2022/03/29 05:22:05;;;;;;;;;;;;;;;27.56;19.89;100735.41;5024808;28;1260;-40
2022/03/29 05:24:30;;;;;;;;;;;;;;;27.54;19.76;100740.19;5022477;28;1902;-39
2022/03/29 05:26:55;;;;;;;;;;;;;;;27.50;19.95;100741.56;5036367;28;865;-38
2022/03/29 05:29:21;;;;;;;;;;;;;;;27.39;20.19;100738.28;5025476;28;765;-40
2022/03/29 05:31:46;;;;;;;;;;;;;;;27.07;19.91;100720.56;5022788;28;1386;-40
2022/03/29 05:34:13;;;;;;;;;;;;;;;26.84;20.34;100729.53;5029020;28;889;-40
2022/03/29 05:36:43;;;;;;;;;;;;;;;26.55;20.62;100729.22;5018997;28;818;-38
2022/03/29 05:39:09;;;;;;;;;;;;;;;26.48;20.72;100718.31;5022486;28;1502;-40
2022/03/29 05:41:34;;;;;;;;;;;;;;;26.53;20.90;100720.47;5027097;28;766;-37
2022/03/29 05:43:59;;;;;;;;;;;;;;;26.52;21.03;100716.94;5021853;28;1972;-33
2022/03/29 05:49:08;;;;;;;;;;;;;;;26.39;21.46;100719.41;5016892;28;759;-39
2022/03/29 05:51:33;;;;;;;;;;;;;;;26.34;21.28;100711.81;5017118;28;815;-39
2022/03/29 05:54:00;;;;;;;;;;;;;;;26.21;21.69;100714.25;5026359;28;1216;-37
2022/03/29 05:56:26;;;;;;;;;;;;;;;26.23;21.71;100714.91;5018631;28;1385;-38
2022/03/29 05:58:51;;;;;;;;;;;;;;;26.64;21.83;100720.03;5028408;28;1608;-37
2022/03/29 06:01:18;;;;;;;;;;;;;;;26.68;22.02;100720.53;5032109;28;1243;-38
2022/03/29 06:03:43;;;;;;;;;;;;;;;26.74;22.24;100718.97;5031609;28;1946;-38
2022/03/29 06:06:09;;;;;;;;;;;;;;;27.23;21.63;100722.25;5021887;28;861;-37
2022/03/29 06:08:35;;;;;;;;;;;;;;;27.22;21.55;100718.75;5018063;28;892;-39
2022/03/29 06:11:01;;;;;;;;;;;;;;;27.38;21.72;100716.88;5019785;28;942;-39
2022/03/29 06:13:26;;;;;;;;;;;;;;;27.23;21.85;100709.59;5024294;28;1168;-40
2022/03/29 06:15:53;;;;;;;;;;;;;;;27.34;21.79;100705.59;5035108;28;850;-40
2022/03/29 06:18:18;;;;;;;;;;;;;;;27.57;21.75;100714.66;5034478;28;861;-39
2022/03/29 06:20:43;;;;;;;;;;;;;;;27.61;20.61;100700.56;5028341;28;992;-38
2022/03/29 06:23:09;;;;;;;;;;;;;;;27.55;21.11;100704.03;5020938;28;1902;-37
2022/03/29 06:25:35;;;;;;;;;;;;;;;27.37;21.19;100707.09;5017926;28;992;-39
2022/03/29 06:28:01;;;;;;;;;;;;;;;27.31;21.61;100703.25;5017699;28;1140;-38
2022/03/29 06:30:26;;;;;;;;;;;;;;;27.23;21.83;100706.91;5016872;28;727;-35
2022/03/29 06:32:52;;;;;;;;;;;;;;;27.26;21.56;100703.81;5018679;28;889;-38
2022/03/29 06:35:24;;;;;;;;;;;;;;;27.31;22.01;100700.56;5016810;28;873;-39
2022/03/29 06:37:51;;;;;;;;;;;;;;;27.16;21.76;100708.66;5016716;28;1248;-37
2022/03/29 06:40:16;;;;;;;;;;;;;;;27.06;21.82;100714.31;5030710;28;1050;-37
2022/03/29 06:42:41;;;;;;;;;;;;;;;26.97;21.99;100712.69;5035230;28;1910;-39
2022/03/29 06:45:08;;;;;;;;;;;;;;;26.86;22.15;100709.41;5029207;28;821;-40
2022/03/29 06:47:33;;;;;;;;;;;;;;;26.85;22.13;100710.44;5023258;28;1053;-38
2022/03/29 06:49:58;;;;;;;;;;;;;;;26.90;22.48;100708.03;5024783;28;1179;-40
2022/03/29 06:52:26;;;;;;;;;;;;;;;26.81;22.16;100706.41;5028155;28;1263;-38
2022/03/29 06:54:52;;;;;;;;;;;;;;;26.80;22.04;100698.50;5025511;28;1129;-40
2022/03/29 06:57:17;;;;;;;;;;;;;;;27.06;23.25;100708.09;5029364;28;929;-37
2022/03/29 06:59:42;;;;;;;;;;;;;;;27.22;21.25;100705.25;5037457;28;1239;-39
2022/03/29 07:02:08;;;;;;;;;;;;;;;27.10;21.58;100701.28;5032579;28;1239;-39
2022/03/29 07:04:33;;;;;;;;;;;;;;;27.29;21.46;100697.22;5031728;28;1998;-39
2022/03/29 07:06:58;;;;;;;;;;;;;;;27.25;21.45;100695.91;5022219;28;1203;-41
2022/03/29 07:12:07;;;;;;;;;;;;;;;26.70;22.11;100688.81;5018453;28;666;-40
2022/03/29 07:14:32;;;;;;;;;;;;;;;26.46;21.88;100685.28;5025285;28;1009;-41
2022/03/29 07:16:59;;;;;;;;;;;;;;;26.28;21.29;100688.25;5037561;28;770;-38
2022/03/29 07:19:27;;;;;;;;;;;;;;;25.86;20.98;100679.59;5038113;28;810;-39
2022/03/29 07:21:52;;;;;;;;;;;;;;;25.77;20.68;100673.38;5037736;28;829;-37
2022/03/29 07:24:17;;;;;;;;;;;;;;;25.95;20.59;100669.56;5022042;28;1971;-37
2022/03/29 07:26:43;;;;;;;;;;;;;;;26.47;20.51;100670.78;5019647;28;819;-39
2022/03/29 07:29:08;;;;;;;;;;;;;;;26.56;20.87;100663.44;5019576;28;1492;-39
2022/03/29 07:31:33;;;;;;;;;;;;;;;26.61;21.14;100671.03;5019264;28;797;-37
2022/03/29 07:33:59;;;;;;;;;;;;;;;26.67;21.06;100664.91;5019287;28;1056;-41
2022/03/29 07:36:24;;;;;;;;;;;;;;;26.69;21.28;100664.72;5024338;28;858;-40
2022/03/29 07:38:50;;;;;;;;;;;;;;;26.77;21.21;100656.53;5018765;28;1660;-39
2022/03/29 07:41:15;;;;;;;;;;;;;;;26.63;21.15;100655.47;5019258;28;870;-37
2022/03/29 07:43:40;;;;;;;;;;;;;;;26.65;21.03;100651.59;5019329;28;1970;-39
2022/03/29 07:46:06;;;;;;;;;;;;;;;26.51;20.65;100642.41;5019235;28;809;-37
2022/03/29 07:48:31;;;;;;;;;;;;;;;26.56;20.86;100632.97;5020468;28;745;-39
2022/03/29 07:50:56;;;;;;;;;;;;;;;26.55;21.49;100624.03;5019396;28;866;-40
2022/03/29 07:53:25;;;;;;;;;;;;;;;26.58;21.17;100622.81;5018909;28;958;-39
2022/03/29 07:55:50;;;;;;;;;;;;;;;26.56;21.48;100623.00;5023087;28;892;-37
2022/03/29 07:58:16;;;;;;;;;;;;;;;26.61;21.30;100628.69;5019423;28;922;-36
2022/03/29 08:00:41;;;;;;;;;;;;;;;26.64;20.99;100622.91;5023869;28;866;-39
2022/03/29 08:03:07;;;;;;;;;;;;;;;26.81;20.99;100616.53;5018380;28;1973;-40
2022/03/29 08:05:33;;;;;;;;;;;;;;;26.68;21.19;100618.00;5023016;28;1144;-40
2022/03/29 08:07:58;;;;;;;;;;;;;;;26.35;21.44;100621.81;5018628;28;1132;-38
2022/03/29 08:10:25;;;;;;;;;;;;;;;26.19;21.69;100609.28;5025050;28;950;-38
2022/03/29 08:12:51;;;;;;;;;;;;;;;26.21;21.65;100615.31;5019088;28;889;-37
2022/03/29 08:15:16;;;;;;;;;;;;;;;26.17;21.83;100609.44;5018951;28;825;-39
2022/03/29 08:17:41;;;;;;;;;;;;;;;26.55;21.19;100610.53;5022383;28;1601;-39
2022/03/29 08:20:07;;;;;;;;;;;;;;;26.23;21.75;100610.59;5019881;28;762;-37
2022/03/29 08:22:32;;;;;;;;;;;;;;;26.27;21.40;100606.53;5018393;28;1957;-40
2022/03/29 08:24:58;;;;;;;;;;;;;;;26.28;20.96;100602.81;5019620;28;791;-41
2022/03/29 08:27:23;;;;;;;;;;;;;;;26.25;21.36;100613.97;5033310;28;1283;-37
2022/03/29 08:29:49;;;;;;;;;;;;;;;26.07;21.66;100598.09;5037532;28;881;-30
2022/03/29 08:32:14;;;;;;;;;;;;;;;25.98;21.98;100591.91;5035462;28;915;-26
2022/03/29 08:34:39;;;;;;;;;;;;;;;26.39;21.11;100581.84;5037273;28;944;-27
2022/03/29 08:37:05;;;;;;;;;;;;;;;26.34;21.72;100582.38;5036838;28;1143;-28
2022/03/29 08:39:31;;;;;;;;;;;;;;;26.06;21.99;100571.31;5033304;28;853;-30
2022/03/29 08:41:58;;;;;;;;;;;;;;;26.22;21.43;100571.19;5018161;28;1084;-30
2022/03/29 08:44:24;;;;;;;;;;;;;;;26.46;21.15;100560.38;5018356;28;1906;-29
2022/03/29 08:46:50;;;;;;;;;;;;;;;26.60;20.92;100551.47;5020074;28;1242;-29
2022/03/29 08:49:15;;;;;;;;;;;;;;;26.52;21.29;100555.09;5036966;28;742;-31
2022/03/29 08:51:40;;;;;;;;;;;;;;;26.81;20.23;100549.88;5033729;28;916;-31
2022/03/29 08:54:06;;;;;;;;;;;;;;;26.89;20.07;100547.09;5021677;28;766;-30
2022/03/29 08:56:31;;;;;;;;;;;;;;;26.87;20.08;100543.78;5017758;28;811;-33
2022/03/29 08:58:56;;;;;;;;;;;;;;;26.94;20.13;100540.31;5017660;28;864;-33
2022/03/29 09:01:23;;;;;;;;;;;;;;;26.97;20.02;100538.09;5018018;28;732;-30
2022/03/29 09:04:07;;;;;;;;;;;;;;;27.18;20.35;100543.75;5020661;28;1951;-34
2022/03/29 09:06:32;;;;;;;;;;;;;;;27.32;20.05;100544.75;5017227;28;849;-29
2022/03/29 09:08:57;;;;;;;;;;;;;;;27.39;19.93;100533.00;5020014;28;825;-28
2022/03/29 09:11:23;;;;;;;;;;;;;;;27.50;20.18;100536.25;5017903;28;1125;-28
2022/03/29 09:14:00;;;;;;;;;;;;;;;27.61;19.82;100537.63;5018583;28;1629;-30
2022/03/29 09:16:29;;;;;;;;;;;;;;;27.67;19.55;100528.75;5016366;28;821;-29
2022/03/29 09:18:55;;;;;;;;;;;;;;;27.69;19.72;100534.81;5020482;28;914;-27
2022/03/29 09:21:20;;;;;;;;;;;;;;;27.59;19.76;100528.88;5016547;28;1428;-26
2022/03/29 09:24:07;;;;;;;;;;;;;;;27.82;19.37;100522.47;5018400;28;1957;-27
2022/03/29 09:26:32;;;;;;;;;;;;;;;27.11;20.54;100527.50;5025293;28;1563;-28
2022/03/29 09:28:58;;;;;;;;;;;;;;;27.47;20.01;100529.38;5024258;28;1029;-29
2022/03/29 09:31:25;;;;;;;;;;;;;;;27.47;20.09;100518.56;5015971;28;877;-31
2022/03/29 09:33:51;;;;;;;;;;;;;;;27.57;19.87;100522.81;5014797;28;822;-27
2022/03/29 09:36:20;;;;;;;;;;;;;;;27.67;20.03;100507.13;5016462;28;854;-32
2022/03/29 09:38:47;;;;;;;;;;;;;;;27.61;20.40;100510.59;5018790;28;1192;-26
2022/03/29 09:41:26;;;;;;;;;;;;;;;27.65;20.34;100502.91;5028649;28;1016;-34
2022/03/29 09:43:58;;;;;;;;;;;;;;;27.59;20.33;100501.84;5023224;28;1903;-29
2022/03/29 09:46:23;;;;;;;;;;;;;;;27.41;20.62;100502.28;5016628;28;818;-26
2022/03/29 09:48:49;;;;;;;;;;;;;;;27.54;20.45;100499.72;5016153;28;862;-33
2022/03/29 09:51:15;;;;;;;;;;;;;;;27.57;20.40;100504.75;5015448;28;892;-30
2022/03/29 09:53:41;;;;;;;;;;;;;;;27.53;20.47;100503.44;5034346;28;810;-31
2022/03/29 09:56:07;;;;;;;;;;;;;;;27.46;20.56;100494.44;5016854;28;938;-27
2022/03/29 09:58:32;;;;;;;;;;;;;;;27.51;20.25;100492.81;5016548;28;774;-28
2022/03/29 10:00:57;;;;;;;;;;;;;;;27.45;20.47;100495.44;5014780;28;854;-28
2022/03/29 10:03:26;;;;;;;;;;;;;;;27.04;21.25;100486.91;5014110;28;1898;-32
2022/03/29 10:05:53;;;;;;;;;;;;;;;27.28;20.85;100484.88;5016410;28;797;-32
2022/03/29 10:11:04;;;;;;;;;;;;;;;27.60;20.39;100476.50;5028935;28;608;-27
2022/03/29 10:13:30;;;;;;;;;;;;;;;27.69;20.22;100469.97;5016303;28;790;-29
2022/03/29 10:15:56;;;;;;;;;;;;;;;27.62;20.25;100479.84;5015901;28;868;-30
2022/03/29 10:18:24;;;;;;;;;;;;;;;27.62;20.55;100469.88;5016172;28;865;-33
2022/03/29 10:20:49;;;;;;;;;;;;;;;27.57;20.69;100474.16;5028140;28;944;-28
2022/03/29 10:23:15;;;;;;;;;;;;;;;27.56;21.03;100459.81;5016872;28;1957;-29
2022/03/29 10:25:41;;;;;;;;;;;;;;;27.74;20.64;100462.09;5022051;28;1172;-27
2022/03/29 10:28:06;;;;;;;;;;;;;;;27.83;20.77;100462.81;5029709;28;1077;-29
2022/03/29 10:30:32;;;;;;;;;;;;;;;27.64;20.27;100453.47;5021510;28;1076;-31
2022/03/29 10:33:16;;;;;;;;;;;;;;;27.56;20.17;100450.91;5036995;28;813;-28
2022/03/29 10:35:59;;;;;;;;;;;;;;;27.43;20.25;100449.72;5020117;28;814;-31
2022/03/29 10:38:37;;;;;;;;;;;;;;;27.25;20.78;100447.47;5027234;28;1034;-29
2022/03/29 10:41:02;;;;;;;;;;;;;;;27.13;20.57;100439.88;5021247;28;1173;-31
2022/03/29 10:43:32;;;;;;;;;;;;;;;27.63;19.83;100430.16;5018936;28;1883;-31
2022/03/29 10:45:57;;;;;;;;;;;;;;;27.85;19.66;100432.88;5026325;28;1155;-30
2022/03/29 10:48:23;;;;;;;;;;;;;;;27.71;19.94;100426.53;5036188;28;1160;-29
2022/03/29 10:50:53;;;;;;;;;;;;;;;27.60;20.22;100420.59;5024751;28;1250;-33
2022/03/29 10:53:37;;;;;;;;;;;;;;;27.68;20.27;100418.75;5031110;28;838;-29
2022/03/29 10:56:15;;;;;;;;;;;;;;;27.70;20.43;100417.59;5017980;28;861;-28
2022/03/29 10:58:59;;;;;;;;;;;;;;;27.63;20.40;100411.25;5031025;28;809;-29
2022/03/29 11:01:24;;;;;;;;;;;;;;;27.55;20.68;100401.41;5018737;28;1031;-31
2022/03/29 11:03:59;;;;;;;;;;;;;;;27.71;20.72;100403.03;5019453;28;1969;-32
2022/03/29 11:06:24;;;;;;;;;;;;;;;28.04;20.22;100396.22;5018761;28;746;-29
2022/03/29 11:08:49;;;;;;;;;;;;;;;28.16;19.92;100387.53;5022527;28;798;-30
2022/03/29 11:11:34;;;;;;;;;;;;;;;28.05;20.13;100389.75;5024619;28;782;-29
2022/03/29 11:14:19;;;;;;;;;;;;;;;28.05;20.18;100384.34;5028024;28;1065;-31
2022/03/29 11:16:44;;;;;;;;;;;;;;;27.96;20.02;100372.03;5038139;28;1275;-30
2022/03/29 11:19:22;;;;;;;;;;;;;;;27.99;19.96;100368.94;5036903;28;987;-32
2022/03/29 11:21:47;;;;;;;;;;;;;;;27.94;20.56;100366.84;5035640;28;1221;-29
2022/03/29 11:24:13;;;;;;;;;;;;;;;28.02;20.03;100363.13;5034780;28;1969;-30
2022/03/29 11:26:51;;;;;;;;;;;;;;;28.14;20.06;100352.59;5034062;28;1290;-30
2022/03/29 11:29:17;;;;;;;;;;;;;;;28.15;20.08;100354.25;5033767;28;1089;-34
2022/03/29 11:31:42;;;;;;;;;;;;;;;28.04;20.23;100350.25;5017744;28;809;-31
2022/03/29 11:34:11;;;;;;;;;;;;;;;28.46;20.09;100352.16;5018766;28;831;-30
2022/03/29 11:36:37;;;;;;;;;;;;;;;28.45;19.67;100345.06;5018359;28;826;-28
2022/03/29 11:39:06;;;;;;;;;;;;;;;28.34;20.23;100333.75;5026113;28;1312;-32
2022/03/29 11:41:33;;;;;;;;;;;;;;;28.63;19.72;100333.66;5018723;28;825;-30
2022/03/29 11:43:58;;;;;;;;;;;;;;;28.78;19.29;100330.78;5018246;28;1910;-29
2022/03/29 11:46:24;;;;;;;;;;;;;;;28.83;19.55;100324.75;5032690;28;899;-30
2022/03/29 11:48:50;;;;;;;;;;;;;;;28.62;19.73;100323.88;5037381;28;1029;-28
2022/03/29 11:51:16;;;;;;;;;;;;;;;28.63;19.68;100316.63;5024082;28;899;-35
2022/03/29 11:53:41;;;;;;;;;;;;;;;28.54;19.83;100324.91;5020149;28;862;-31
2022/03/29 11:56:13;;;;;;;;;;;;;;;28.76;19.33;100322.03;5018579;28;807;-32
2022/03/29 11:58:42;;;;;;;;;;;;;;;28.36;19.67;100320.06;5018461;28;791;-28
2022/03/29 12:01:07;;;;;;;;;;;;;;;28.32;20.05;100316.06;5018640;28;739;-28
2022/03/29 12:03:34;;;;;;;;;;;;;;;28.33;19.62;100317.75;5022979;28;1973;-31
2022/03/29 12:06:06;;;;;;;;;;;;;;;28.30;20.11;100318.97;5017959;28;830;-30
2022/03/29 12:08:47;;;;;;;;;;;;;;;28.22;20.16;100311.88;5019072;28;746;-28
2022/03/29 12:11:13;;;;;;;;;;;;;;;28.18;19.97;100312.44;5017806;28;925;-29
2022/03/29 12:13:39;;;;;;;;;;;;;;;28.19;19.90;100311.44;5017644;28;846;-28
2022/03/29 12:16:21;;;;;;;;;;;;;;;28.23;20.18;100307.25;5022111;28;806;-29
2022/03/29 12:18:46;;;;;;;;;;;;;;;28.26;20.15;100308.75;5037138;28;750;-28
2022/03/29 12:21:13;;;;;;;;;;;;;;;28.30;20.03;100301.88;5037025;28;836;-33
2022/03/29 12:23:38;;;;;;;;;;;;;;;28.35;20.16;100294.88;5037214;28;1973;-30
2022/03/29 12:26:04;;;;;;;;;;;;;;;28.28;19.94;100287.75;5020529;28;900;-29
2022/03/29 12:28:29;;;;;;;;;;;;;;;28.25;20.33;100291.69;5021593;28;819;-31
2022/03/29 12:30:55;;;;;;;;;;;;;;;28.22;19.99;100289.38;5032990;28;884;-31
2022/03/29 12:33:20;;;;;;;;;;;;;;;28.43;19.97;100276.78;5017880;28;822;-29
2022/03/29 12:35:48;;;;;;;;;;;;;;;28.39;20.27;100281.78;5017200;28;850;-28
2022/03/29 12:38:14;;;;;;;;;;;;;;;28.23;20.24;100272.94;5017609;28;1079;-28
2022/03/29 12:40:40;;;;;;;;;;;;;;;28.35;19.98;100266.97;5021179;28;856;-28
2022/03/29 12:43:06;;;;;;;;;;;;;;;28.47;19.68;100273.50;5032094;28;1971;-29
2022/03/29 12:45:35;;;;;;;;;;;;;;;28.36;19.54;100268.66;5015661;28;834;-29
2022/03/29 12:48:03;;;;;;;;;;;;;;;28.18;19.98;100272.72;5017353;28;819;-30
2022/03/29 12:50:29;;;;;;;;;;;;;;;28.08;20.10;100267.69;5016435;28;746;-29
2022/03/29 12:53:01;;;;;;;;;;;;;;;28.23;20.20;100264.84;5017270;28;933;-28
2022/03/29 12:55:27;;;;;;;;;;;;;;;28.08;20.39;100266.84;5024684;28;1011;-31
2022/03/29 12:57:58;;;;;;;;;;;;;;;28.61;19.67;100276.22;5035605;28;773;-28
2022/03/29 13:00:23;;;;;;;;;;;;;;;28.95;19.63;100265.44;5034035;28;897;-30
2022/03/29 13:02:49;;;;;;;;;;;;;;;28.41;19.72;100263.47;5023443;28;1906;-31
2022/03/29 13:05:15;;;;;;;;;;;;;;;27.95;19.98;100248.69;5020881;28;1204;-33